createdAt,value
2023-08-29T00:01:54.073Z,95432.25
2023-08-29T00:04:20.943Z,95420.41
2023-08-29T00:06:47.629Z,95416.28
2023-08-29T00:09:14.905Z,95408.53
2023-08-29T00:11:41.635Z,95382.34
2023-08-29T00:14:08.356Z,95419.81
2023-08-29T00:16:35.010Z,95425.78
2023-08-29T00:19:01.648Z,95427.59
2023-08-29T00:21:28.283Z,95425.13
2023-08-29T00:23:55.888Z,95421.81
2023-08-29T00:26:22.463Z,95425.00
2023-08-29T00:28:54.889Z,95425.13
2023-08-29T00:31:23.858Z,95426.56
2023-08-29T00:33:50.536Z,95387.38
2023-08-29T00:36:17.399Z,95421.50
2023-08-29T00:38:46.549Z,95437.72
2023-08-29T00:41:16.851Z,95427.50
2023-08-29T00:43:43.488Z,95432.50
2023-08-29T00:46:10.274Z,95419.22
2023-08-29T00:48:38.388Z,95445.72
2023-08-29T00:51:04.996Z,95451.59
2023-08-29T00:53:34.640Z,95451.66
2023-08-29T00:56:01.365Z,95437.00
2023-08-29T00:58:29.314Z,95447.25
2023-08-29T01:00:56.006Z,95436.31
2023-08-29T01:03:22.910Z,95420.13
2023-08-29T01:05:49.670Z,95427.00
2023-08-29T01:08:16.342Z,95440.94
2023-08-29T01:11:14.738Z,95453.41
2023-08-29T01:14:20.434Z,95446.84
2023-08-29T01:16:57.841Z,95436.59
2023-08-29T01:19:24.841Z,95438.31
2023-08-29T01:22:10.558Z,95435.94
2023-08-29T01:24:45.755Z,95425.78
2023-08-29T01:27:12.600Z,95435.19
2023-08-29T01:29:42.169Z,95412.69
2023-08-29T01:32:09.077Z,95429.34
2023-08-29T01:34:35.749Z,95438.78
2023-08-29T01:37:02.391Z,95453.13
2023-08-29T01:39:29.832Z,95433.41
2023-08-29T01:41:56.505Z,95410.78
2023-08-29T01:44:23.109Z,95433.19
2023-08-29T01:46:49.727Z,95444.75
2023-08-29T01:49:16.388Z,95447.69
2023-08-29T01:51:45.138Z,95434.94
2023-08-29T01:54:12.995Z,95430.09
2023-08-29T01:56:40.995Z,95431.16
2023-08-29T01:59:08.010Z,95431.44
2023-08-29T02:01:34.758Z,95433.94
2023-08-29T02:04:01.447Z,95430.28
2023-08-29T02:06:29.076Z,95448.97
2023-08-29T02:08:55.906Z,95444.56
2023-08-29T02:11:22.756Z,95426.91
2023-08-29T02:13:49.418Z,95413.31
2023-08-29T02:16:16.155Z,95420.69
2023-08-29T02:18:42.737Z,95431.69
2023-08-29T02:21:12.412Z,95424.84
2023-08-29T02:23:39.046Z,95421.84
2023-08-29T02:26:06.737Z,95428.66
2023-08-29T02:28:37.577Z,95421.25
2023-08-29T02:31:11.345Z,95411.72
2023-08-29T02:33:39.356Z,95417.03
2023-08-29T02:36:06.796Z,95421.25
2023-08-29T02:38:34.365Z,95404.06
2023-08-29T02:41:01.024Z,95411.69
2023-08-29T02:43:28.241Z,95394.56
2023-08-29T02:45:55.327Z,95405.94
2023-08-29T02:48:21.994Z,95421.34
2023-08-29T02:50:51.488Z,95429.88
2023-08-29T02:53:19.193Z,95406.06
2023-08-29T02:55:45.910Z,95390.50
2023-08-29T02:58:13.043Z,95417.63
2023-08-29T03:00:40.649Z,95400.41
2023-08-29T03:03:07.650Z,95406.41
2023-08-29T03:05:34.471Z,95413.34
2023-08-29T03:08:02.440Z,95415.09
2023-08-29T03:10:29.172Z,95410.75
2023-08-29T03:12:56.120Z,95412.47
2023-08-29T03:15:24.134Z,95376.72
2023-08-29T03:17:51.381Z,95388.75
2023-08-29T03:20:18.480Z,95396.47
2023-08-29T03:22:45.423Z,95397.03
2023-08-29T03:25:12.230Z,95398.63
2023-08-29T03:27:38.860Z,95406.31
2023-08-29T03:30:06.148Z,95392.75
2023-08-29T03:32:32.923Z,95403.59
2023-08-29T03:34:59.808Z,95406.97
2023-08-29T03:37:26.559Z,95401.63
2023-08-29T03:39:55.802Z,95413.41
2023-08-29T03:42:22.460Z,95399.84
2023-08-29T03:44:49.308Z,95398.00
2023-08-29T03:47:15.922Z,95387.56
2023-08-29T03:49:42.657Z,95390.97
2023-08-29T03:52:09.388Z,95398.84
2023-08-29T03:54:35.993Z,95389.38
2023-08-29T03:57:02.697Z,95384.56
2023-08-29T03:59:29.510Z,95398.84
2023-08-29T04:01:56.836Z,95407.56
2023-08-29T04:04:23.840Z,95407.22
2023-08-29T04:06:50.687Z,95401.13
2023-08-29T04:09:17.261Z,95413.00
2023-08-29T04:11:43.932Z,95410.41
2023-08-29T04:14:10.526Z,95411.94
2023-08-29T04:16:37.285Z,95405.94
2023-08-29T04:19:05.021Z,95406.78
2023-08-29T04:21:31.797Z,95415.19
2023-08-29T04:23:58.402Z,95407.41
2023-08-29T04:26:25.435Z,95407.22
2023-08-29T04:28:52.297Z,95405.38
2023-08-29T04:31:20.981Z,95393.69
2023-08-29T04:33:47.872Z,95409.91
2023-08-29T04:36:17.967Z,95414.22
2023-08-29T04:38:46.261Z,95409.75
2023-08-29T04:41:12.920Z,95400.97
2023-08-29T04:43:40.643Z,95390.78
2023-08-29T04:46:10.187Z,95417.34
2023-08-29T04:48:37.178Z,95425.56
2023-08-29T04:51:05.627Z,95418.59
2023-08-29T04:53:33.131Z,95413.38
2023-08-29T04:56:05.723Z,95416.88
2023-08-29T04:58:36.153Z,95399.75
2023-08-29T05:01:03.423Z,95413.50
2023-08-29T05:03:30.330Z,95411.53
2023-08-29T05:05:58.845Z,95392.13
2023-08-29T05:08:25.648Z,95398.38
2023-08-29T05:10:52.263Z,95405.19
2023-08-29T05:13:19.002Z,95413.59
2023-08-29T05:15:46.402Z,95400.47
2023-08-29T05:18:13.530Z,95407.91
2023-08-29T05:20:40.222Z,95410.28
2023-08-29T05:23:06.814Z,95411.13
2023-08-29T05:25:33.877Z,95412.63
2023-08-29T05:28:00.594Z,95404.94
2023-08-29T05:30:27.271Z,95391.31
2023-08-29T05:32:54.576Z,95410.91
2023-08-29T05:35:21.414Z,95426.97
2023-08-29T05:37:48.010Z,95420.97
2023-08-29T05:40:15.059Z,95424.25
2023-08-29T05:42:41.675Z,95392.00
2023-08-29T05:45:08.654Z,95422.53
2023-08-29T05:47:35.301Z,95417.41
2023-08-29T05:50:02.005Z,95424.03
2023-08-29T05:52:29.501Z,95408.69
2023-08-29T05:54:57.135Z,95397.66
2023-08-29T05:57:23.775Z,95426.63
2023-08-29T05:59:50.442Z,95410.41
2023-08-29T06:02:17.051Z,95429.34
2023-08-29T06:04:43.707Z,95432.91
2023-08-29T06:07:10.617Z,95435.50
2023-08-29T06:09:37.241Z,95446.63
2023-08-29T06:12:04.148Z,95442.13
2023-08-29T06:14:31.768Z,95442.25
2023-08-29T06:16:58.587Z,95443.88
2023-08-29T06:19:25.330Z,95440.38
2023-08-29T06:21:52.297Z,95438.66
2023-08-29T06:24:19.015Z,95416.13
2023-08-29T06:26:45.850Z,95444.25
2023-08-29T06:29:12.472Z,95463.03
2023-08-29T06:31:41.233Z,95455.63
2023-08-29T06:34:08.097Z,95462.66
2023-08-29T06:36:34.761Z,95474.34
2023-08-29T06:39:02.042Z,95481.25
2023-08-29T06:41:29.380Z,95477.91
2023-08-29T06:43:56.346Z,95484.41
2023-08-29T06:46:24.245Z,95486.19
2023-08-29T06:48:50.934Z,95483.72
2023-08-29T06:51:17.543Z,95458.09
2023-08-29T06:53:44.274Z,95485.44
2023-08-29T06:56:10.956Z,95476.81
2023-08-29T06:58:38.550Z,95479.81
2023-08-29T07:01:05.535Z,95488.41
2023-08-29T07:03:32.173Z,95476.28
2023-08-29T07:05:59.962Z,95477.41
2023-08-29T07:08:26.609Z,95476.63
2023-08-29T07:10:53.176Z,95496.19
2023-08-29T07:13:19.997Z,95496.09
2023-08-29T07:15:46.989Z,95498.47
2023-08-29T07:18:14.571Z,95492.50
2023-08-29T07:20:41.336Z,95506.06
2023-08-29T07:23:08.429Z,95510.13
2023-08-29T07:25:44.168Z,95479.03
2023-08-29T07:28:14.372Z,95509.03
2023-08-29T07:30:47.111Z,95502.78
2023-08-29T07:33:14.865Z,95512.78
2023-08-29T07:35:42.554Z,95514.50
2023-08-29T07:38:09.702Z,95501.53
2023-08-29T07:40:36.353Z,95517.56
2023-08-29T07:43:05.259Z,95518.94
2023-08-29T07:45:32.205Z,95519.03
2023-08-29T07:47:59.193Z,95493.69
2023-08-29T07:50:26.730Z,95506.78
2023-08-29T07:52:53.401Z,95499.13
2023-08-29T07:55:20.069Z,95510.31
2023-08-29T07:57:46.718Z,95522.34
2023-08-29T08:00:13.863Z,95516.03
2023-08-29T08:02:40.990Z,95511.84
2023-08-29T08:05:12.843Z,95510.16
2023-08-29T08:07:40.287Z,95521.16
2023-08-29T08:10:07.659Z,95521.84
2023-08-29T08:12:35.560Z,95520.81
2023-08-29T08:15:05.456Z,95512.22
2023-08-29T08:17:32.798Z,95528.28
2023-08-29T08:19:59.417Z,95524.84
2023-08-29T08:22:26.146Z,95502.03
2023-08-29T08:24:52.744Z,95504.34
2023-08-29T08:27:20.699Z,95531.22
2023-08-29T08:29:47.316Z,95515.78
2023-08-29T08:32:13.995Z,95533.00
2023-08-29T08:34:40.579Z,95529.75
2023-08-29T08:37:07.211Z,95507.25
2023-08-29T08:39:33.815Z,95528.84
2023-08-29T08:42:03.627Z,95506.56
2023-08-29T08:44:33.820Z,95520.00
2023-08-29T08:47:00.710Z,95520.53
2023-08-29T08:49:27.545Z,95525.53
2023-08-29T08:51:55.407Z,95505.34
2023-08-29T08:54:22.049Z,95540.22
2023-08-29T08:56:49.180Z,95538.34
2023-08-29T08:59:16.292Z,95545.56
2023-08-29T09:01:43.795Z,95552.56
2023-08-29T09:04:10.646Z,95550.53
2023-08-29T09:06:39.383Z,95547.25
2023-08-29T09:09:17.895Z,95556.56
2023-08-29T09:11:44.617Z,95550.53
2023-08-29T09:14:13.005Z,95548.56
2023-08-29T09:16:40.637Z,95549.97
2023-08-29T09:19:07.944Z,95538.97
2023-08-29T09:21:36.531Z,95568.13
2023-08-29T09:24:05.747Z,95542.63
2023-08-29T09:26:34.091Z,95556.41
2023-08-29T09:29:00.860Z,95567.56
2023-08-29T09:31:27.476Z,95571.22
2023-08-29T09:33:54.354Z,95588.31
2023-08-29T09:36:21.113Z,95578.13
2023-08-29T09:38:47.722Z,95580.09
2023-08-29T09:41:17.260Z,95566.38
2023-08-29T09:43:48.763Z,95581.44
2023-08-29T09:46:23.876Z,95583.03
2023-08-29T09:48:58.107Z,95592.16
2023-08-29T09:51:26.625Z,95588.75
2023-08-29T09:53:58.027Z,95590.16
2023-08-29T09:56:26.106Z,95593.63
2023-08-29T09:58:54.684Z,95582.25
2023-08-29T10:01:22.600Z,95592.41
2023-08-29T10:03:49.461Z,95580.38
2023-08-29T10:06:17.756Z,95594.84
2023-08-29T10:08:47.297Z,95592.94
2023-08-29T10:11:14.065Z,95601.47
2023-08-29T10:13:43.925Z,95596.75
2023-08-29T10:16:10.741Z,95603.50
2023-08-29T10:18:37.374Z,95588.56
2023-08-29T10:21:05.156Z,95600.25
2023-08-29T10:23:32.259Z,95597.69
2023-08-29T10:26:02.271Z,95599.19
2023-08-29T10:28:30.365Z,95588.19
2023-08-29T10:31:01.091Z,95614.44
2023-08-29T10:33:27.872Z,95564.88
2023-08-29T10:35:54.500Z,95604.22
2023-08-29T10:38:21.177Z,95594.53
2023-08-29T10:40:47.876Z,95600.72
2023-08-29T10:43:19.900Z,95593.59
2023-08-29T10:45:52.681Z,95604.44
2023-08-29T10:48:23.798Z,95607.84
2023-08-29T10:51:11.949Z,95604.16
2023-08-29T10:54:06.906Z,95604.72
2023-08-29T10:56:44.017Z,95606.44
2023-08-29T10:59:30.574Z,95592.03
2023-08-29T11:02:21.750Z,95594.50
2023-08-29T11:07:27.732Z,95593.72
2023-08-29T11:10:12.702Z,95597.16
2023-08-29T11:13:02.404Z,95594.22
2023-08-29T11:15:52.345Z,95592.69
2023-08-29T11:18:35.835Z,95580.63
2023-08-29T11:21:07.741Z,95576.28
2023-08-29T11:23:39.829Z,95584.41
2023-08-29T11:26:06.712Z,95576.59
2023-08-29T11:28:36.667Z,95573.19
2023-08-29T11:31:05.355Z,95562.63
2023-08-29T11:33:38.340Z,95578.56
2023-08-29T11:36:06.607Z,95572.66
2023-08-29T11:38:33.970Z,95533.06
2023-08-29T11:41:15.047Z,95564.63
2023-08-29T11:44:12.828Z,95531.47
2023-08-29T11:46:37.980Z,95566.22
2023-08-29T11:49:15.183Z,95566.03
2023-08-29T11:51:42.754Z,95577.84
2023-08-29T11:54:57.976Z,95577.84
2023-08-29T11:57:24.737Z,95564.97
2023-08-29T11:59:52.220Z,95583.47
2023-08-29T12:02:22.183Z,95548.03
2023-08-29T12:04:53.724Z,95592.16
2023-08-29T12:07:20.574Z,95557.97
2023-08-29T12:09:48.916Z,95570.00
2023-08-29T12:12:36.976Z,95564.31
2023-08-29T12:15:06.916Z,95569.06
2023-08-29T12:17:41.295Z,95589.41
2023-08-29T12:20:18.128Z,95605.06
2023-08-29T12:22:49.147Z,95605.84
2023-08-29T12:25:18.712Z,95599.69
2023-08-29T12:27:45.653Z,95585.75
2023-08-29T12:30:16.877Z,95597.38
2023-08-29T12:32:44.523Z,95587.97
2023-08-29T12:35:11.931Z,95599.28
2023-08-29T12:37:39.458Z,95596.00
2023-08-29T12:40:09.847Z,95601.41
2023-08-29T12:42:37.258Z,95587.47
2023-08-29T12:45:05.225Z,95592.50
2023-08-29T12:47:31.990Z,95602.81
2023-08-29T12:49:58.761Z,95585.59
2023-08-29T12:52:25.562Z,95591.31
2023-08-29T12:54:52.436Z,95596.75
2023-08-29T12:57:19.148Z,95596.88
2023-08-29T12:59:46.495Z,95597.38
2023-08-29T13:02:13.279Z,95583.53
2023-08-29T13:04:40.046Z,95595.97
2023-08-29T13:07:06.926Z,95573.38
2023-08-29T13:09:37.993Z,95596.28
2023-08-29T13:12:07.922Z,95598.00
2023-08-29T13:14:38.744Z,95589.91
2023-08-29T13:17:07.135Z,95607.84
2023-08-29T13:19:34.563Z,95586.03
2023-08-29T13:22:05.350Z,95603.97
2023-08-29T13:24:32.485Z,95599.00
2023-08-29T13:26:59.396Z,95599.50
2023-08-29T13:29:27.870Z,95611.34
2023-08-29T13:31:54.786Z,95604.31
2023-08-29T13:34:21.560Z,95592.41
2023-08-29T13:36:48.430Z,95601.94
2023-08-29T13:39:15.068Z,95609.81
2023-08-29T13:41:44.712Z,95602.69
2023-08-29T13:44:12.221Z,95593.41
2023-08-29T13:46:39.004Z,95602.63
2023-08-29T13:49:05.657Z,95586.84
2023-08-29T13:51:32.197Z,95586.97
2023-08-29T13:53:58.823Z,95589.66
2023-08-29T13:56:26.376Z,95589.28
2023-08-29T13:58:53.558Z,95593.94
2023-08-29T14:01:20.179Z,95603.16
2023-08-29T14:03:47.024Z,95577.38
2023-08-29T14:06:13.949Z,95568.25
2023-08-29T14:08:40.633Z,95592.78
2023-08-29T14:11:08.405Z,95580.38
2023-08-29T14:13:35.600Z,95582.66
2023-08-29T14:16:06.481Z,95593.41
2023-08-29T14:18:37.140Z,95598.25
2023-08-29T14:21:03.940Z,95585.53
2023-08-29T14:23:30.639Z,95582.75
2023-08-29T14:25:57.890Z,95580.28
2023-08-29T14:28:26.019Z,95588.56
2023-08-29T14:30:52.780Z,95593.75
2023-08-29T14:33:19.879Z,95580.69
2023-08-29T14:35:46.552Z,95596.66
2023-08-29T14:38:14.245Z,95596.25
2023-08-29T14:40:41.085Z,95596.59
2023-08-29T14:43:07.734Z,95581.41
2023-08-29T14:45:34.499Z,95600.94
2023-08-29T14:48:01.275Z,95603.44
2023-08-29T14:50:27.945Z,95606.78
2023-08-29T14:52:54.551Z,95605.78
2023-08-29T14:55:30.236Z,95599.84
2023-08-29T14:58:06.871Z,95590.63
2023-08-29T15:00:37.044Z,95583.59
2023-08-29T15:03:09.902Z,95607.38
2023-08-29T15:05:37.120Z,95592.53
2023-08-29T15:08:04.831Z,95610.97
2023-08-29T15:10:32.327Z,95610.25
2023-08-29T15:13:01.127Z,95614.88
2023-08-29T15:15:33.224Z,95625.28
2023-08-29T15:17:59.912Z,95598.69
2023-08-29T15:20:29.469Z,95631.69
2023-08-29T15:22:56.199Z,95627.06
2023-08-29T15:25:22.890Z,95615.75
2023-08-29T15:27:49.606Z,95616.91
2023-08-29T15:30:16.323Z,95617.28
2023-08-29T15:32:43.055Z,95600.06
2023-08-29T15:35:11.864Z,95625.88
2023-08-29T15:37:41.174Z,95595.78
2023-08-29T15:40:10.207Z,95608.06
2023-08-29T15:42:37.047Z,95639.59
2023-08-29T15:45:04.097Z,95628.53
2023-08-29T15:47:30.884Z,95627.31
2023-08-29T15:49:57.608Z,95637.84
2023-08-29T15:52:24.253Z,95630.31
2023-08-29T15:54:54.227Z,95646.06
2023-08-29T15:57:35.810Z,95590.81
2023-08-29T16:00:12.275Z,95614.97
2023-08-29T16:02:45.467Z,95610.66
2023-08-29T16:05:12.715Z,95652.16
2023-08-29T16:07:39.427Z,95659.50
2023-08-29T16:10:07.168Z,95655.44
2023-08-29T16:12:33.772Z,95659.66
2023-08-29T16:15:00.468Z,95658.84
2023-08-29T16:17:28.466Z,95674.25
2023-08-29T16:19:55.174Z,95657.69
2023-08-29T16:22:21.749Z,95672.66
2023-08-29T16:24:48.501Z,95649.47
2023-08-29T16:27:16.916Z,95674.28
2023-08-29T16:29:43.758Z,95680.28
2023-08-29T16:32:10.354Z,95678.09
2023-08-29T16:34:37.168Z,95684.09
2023-08-29T16:37:04.152Z,95678.88
2023-08-29T16:39:33.757Z,95685.69
2023-08-29T16:42:00.872Z,95658.28
2023-08-29T16:44:27.683Z,95674.31
2023-08-29T16:46:56.753Z,95657.34
2023-08-29T16:49:23.503Z,95675.94
2023-08-29T16:51:50.287Z,95667.19
2023-08-29T16:54:17.128Z,95661.06
2023-08-29T16:56:45.639Z,95677.25
2023-08-29T16:59:12.499Z,95675.44
2023-08-29T17:01:39.107Z,95666.78
2023-08-29T17:04:06.982Z,95663.16
2023-08-29T17:06:34.361Z,95666.09
2023-08-29T17:09:01.158Z,95673.94
2023-08-29T17:11:28.012Z,95656.13
2023-08-29T17:13:54.917Z,95677.78
2023-08-29T17:16:24.305Z,95664.38
2023-08-29T17:18:51.168Z,95679.53
2023-08-29T17:21:18.862Z,95682.84
2023-08-29T17:23:45.608Z,95686.19
2023-08-29T17:26:12.391Z,95680.91
2023-08-29T17:28:55.415Z,95686.91
2023-08-29T17:31:25.998Z,95671.63
2023-08-29T17:33:52.616Z,95665.44
2023-08-29T17:36:19.243Z,95683.22
2023-08-29T17:38:45.843Z,95698.63
2023-08-29T17:41:12.492Z,95714.13
2023-08-29T17:43:39.152Z,95698.53
2023-08-29T17:46:07.147Z,95688.00
2023-08-29T17:48:33.783Z,95687.63
2023-08-29T17:51:00.521Z,95699.00
2023-08-29T17:53:27.879Z,95708.53
2023-08-29T17:55:55.455Z,95689.09
2023-08-29T17:58:22.786Z,95688.97
2023-08-29T18:00:52.819Z,95707.16
2023-08-29T18:03:20.010Z,95671.47
2023-08-29T18:05:54.030Z,95699.88
2023-08-29T18:08:22.919Z,95707.19
2023-08-29T18:10:49.532Z,95699.47
2023-08-29T18:13:17.889Z,95709.00
2023-08-29T18:15:44.570Z,95698.00
2023-08-29T18:18:24.017Z,95703.22
2023-08-29T18:20:55.671Z,95698.88
2023-08-29T18:23:24.023Z,95684.91
2023-08-29T18:25:55.514Z,95707.06
2023-08-29T18:28:22.223Z,95702.97
2023-08-29T18:30:48.892Z,95691.13
2023-08-29T18:33:17.884Z,95702.19
2023-08-29T18:35:50.853Z,95707.13
2023-08-29T18:38:18.683Z,95697.50
2023-08-29T18:40:46.627Z,95729.16
2023-08-29T18:43:13.933Z,95710.59
2023-08-29T18:45:41.053Z,95718.34
2023-08-29T18:48:08.576Z,95714.88
2023-08-29T18:50:38.696Z,95704.88
2023-08-29T18:53:08.253Z,95729.84
2023-08-29T18:55:41.514Z,95723.72
2023-08-29T18:58:08.424Z,95742.06
2023-08-29T19:00:35.367Z,95742.00
2023-08-29T19:03:02.240Z,95713.00
2023-08-29T19:05:29.008Z,95745.25
2023-08-29T19:07:57.327Z,95744.31
2023-08-29T19:10:24.049Z,95742.56
2023-08-29T19:12:50.708Z,95745.13
2023-08-29T19:15:17.350Z,95730.50
2023-08-29T19:17:44.709Z,95735.56
2023-08-29T19:20:14.083Z,95730.63
2023-08-29T19:22:40.735Z,95712.84
2023-08-29T19:25:10.208Z,95735.81
2023-08-29T19:27:46.285Z,95706.69
2023-08-29T19:30:15.575Z,95690.38
2023-08-29T19:32:42.213Z,95697.16
2023-08-29T19:35:11.120Z,95723.31
2023-08-29T19:37:38.962Z,95734.53
2023-08-29T19:40:07.101Z,95727.78
2023-08-29T19:42:33.940Z,95734.53
2023-08-29T19:45:00.601Z,95707.06
2023-08-29T19:47:27.203Z,95737.16
2023-08-29T19:49:53.871Z,95730.97
2023-08-29T19:52:23.129Z,95734.41
2023-08-29T19:54:49.825Z,95724.72
2023-08-29T19:57:16.689Z,95723.66
2023-08-29T19:59:44.476Z,95728.22
2023-08-29T20:02:11.065Z,95700.81
2023-08-29T20:04:37.782Z,95731.63
2023-08-29T20:07:04.575Z,95725.50
2023-08-29T20:09:32.710Z,95735.13
2023-08-29T20:12:01.433Z,95738.78
2023-08-29T20:14:30.399Z,95730.25
2023-08-29T20:16:59.125Z,95730.38
2023-08-29T20:19:26.092Z,95738.91
2023-08-29T20:21:52.818Z,95743.03
2023-08-29T20:24:21.206Z,95754.25
2023-08-29T20:26:48.249Z,95750.06
2023-08-29T20:29:15.814Z,95737.44
2023-08-29T20:31:42.375Z,95754.31
2023-08-29T20:34:09.299Z,95741.22
2023-08-29T20:36:36.034Z,95732.66
2023-08-29T20:39:02.751Z,95740.13
2023-08-29T20:41:30.372Z,95738.44
2023-08-29T20:43:57.353Z,95740.25
2023-08-29T20:46:23.951Z,95755.72
2023-08-29T20:48:52.937Z,95750.53
2023-08-29T20:51:19.941Z,95735.13
2023-08-29T20:53:47.179Z,95745.50
2023-08-29T20:56:13.844Z,95751.78
2023-08-29T20:58:40.593Z,95746.75
2023-08-29T21:01:07.254Z,95745.97
2023-08-29T21:03:34.279Z,95750.34
2023-08-29T21:06:01.000Z,95733.19
2023-08-29T21:08:27.775Z,95739.38
2023-08-29T21:10:54.734Z,95761.00
2023-08-29T21:13:21.821Z,95754.06
2023-08-29T21:15:48.707Z,95746.09
2023-08-29T21:18:16.916Z,95750.25
2023-08-29T21:20:54.839Z,95752.06
2023-08-29T21:23:22.268Z,95742.75
2023-08-29T21:25:49.490Z,95752.06
2023-08-29T21:28:23.610Z,95755.28
2023-08-29T21:30:50.598Z,95746.53
2023-08-29T21:33:17.345Z,95735.56
2023-08-29T21:35:44.250Z,95741.66
2023-08-29T21:38:12.257Z,95751.16
2023-08-29T21:40:43.641Z,95755.22
2023-08-29T21:43:12.926Z,95717.59
2023-08-29T21:45:42.782Z,95750.78
2023-08-29T21:48:10.696Z,95747.38
2023-08-29T21:50:42.622Z,95744.75
2023-08-29T21:53:10.556Z,95741.22
2023-08-29T21:55:38.564Z,95737.81
2023-08-29T21:58:06.670Z,95725.81
2023-08-29T22:00:34.621Z,95735.56
2023-08-29T22:03:02.724Z,95725.22
2023-08-29T22:05:31.058Z,95749.81
2023-08-29T22:07:58.480Z,95725.09
2023-08-29T22:10:25.144Z,95737.75
2023-08-29T22:12:52.178Z,95749.00
2023-08-29T22:15:19.049Z,95744.72
2023-08-29T22:17:45.984Z,95739.47
2023-08-29T22:20:13.472Z,95732.50
2023-08-29T22:22:41.568Z,95742.81
2023-08-29T22:25:09.311Z,95740.13
2023-08-29T22:27:36.235Z,95739.16
2023-08-29T22:30:06.624Z,95741.59
2023-08-29T22:32:33.640Z,95742.50
2023-08-29T22:35:00.984Z,95730.69
2023-08-29T22:37:27.725Z,95711.22
2023-08-29T22:39:54.744Z,95742.88
2023-08-29T22:42:21.947Z,95742.19
2023-08-29T22:44:48.847Z,95736.06
2023-08-29T22:47:16.421Z,95737.69
2023-08-29T22:49:46.710Z,95728.31
2023-08-29T22:52:13.553Z,95729.31
2023-08-29T22:54:41.796Z,95709.63
2023-08-29T22:57:08.502Z,95707.81
2023-08-29T22:59:35.078Z,95711.31
2023-08-29T23:02:04.358Z,95730.97
2023-08-29T23:04:31.124Z,95705.53
2023-08-29T23:07:05.081Z,95730.19
2023-08-29T23:09:32.878Z,95716.88
2023-08-29T23:12:00.226Z,95732.03
2023-08-29T23:14:28.059Z,95715.81
2023-08-29T23:16:55.122Z,95717.53
2023-08-29T23:19:25.409Z,95727.72
2023-08-29T23:21:55.758Z,95724.84
2023-08-29T23:24:22.484Z,95701.94
2023-08-29T23:26:49.408Z,95713.69
2023-08-29T23:29:16.447Z,95719.63
2023-08-29T23:31:43.902Z,95696.56
2023-08-29T23:34:11.182Z,95710.28
2023-08-29T23:36:38.142Z,95718.81
2023-08-29T23:39:05.179Z,95713.75
2023-08-29T23:41:32.393Z,95689.09
2023-08-29T23:44:00.216Z,95687.56
2023-08-29T23:46:26.857Z,95699.53
2023-08-29T23:48:53.649Z,95699.53
2023-08-29T23:51:20.397Z,95689.94
2023-08-29T23:53:47.002Z,95690.88
2023-08-29T23:56:13.604Z,95682.88
2023-08-29T23:58:40.223Z,95680.41
